Time;durP1;ratioP1;P1;durP2;ratioP2;P2;SDS_P1;SDS_P2;PMS_P1;PMS_P2;Temp;Humidity;BMP_temperature;BMP_pressure;BME280_temperature;BME280_humidity;BME280_pressure;Samples;Min_cycle;Max_cycle;Signal;HPM_P1;HPM_P2
2023/01/28 00:02:39;;;;;;;23.07;13.97;;;;;;;-0.84;69.02;97981.34;6250483;28;20238;-38
2023/01/28 00:05:42;;;;;;;23.60;13.57;;;;;;;-0.96;68.83;97979.22;6253265;28;20300;-39
2023/01/28 00:08:44;;;;;;;21.57;13.67;;;;;;;-1.04;69.07;97985.22;6252966;28;20285;-39
2023/01/28 00:11:47;;;;;;;21.60;13.07;;;;;;;-1.11;69.54;97982.44;6253279;28;20721;-39
2023/01/28 00:14:54;;;;;;;21.30;12.47;;;;;;;-1.07;69.19;97989.00;6240863;28;20713;-39
2023/01/28 00:17:56;;;;;;;18.60;12.50;;;;;;;-1.07;69.30;97980.34;6249162;28;20248;-39
2023/01/28 00:21:00;;;;;;;23.00;13.17;;;;;;;-1.09;69.51;97982.28;6252015;28;20338;-39
2023/01/28 00:24:03;;;;;;;18.60;12.03;;;;;;;-1.07;69.24;97990.78;6250004;28;20571;-38
2023/01/28 00:27:05;;;;;;;20.97;12.17;;;;;;;-1.12;69.34;97985.22;6252439;28;20320;-38
2023/01/28 00:30:10;;;;;;;22.50;12.73;;;;;;;-1.10;69.59;97989.31;6252989;28;20219;-38
2023/01/28 00:33:12;;;;;;;21.23;11.97;;;;;;;-1.08;69.50;97978.72;6251849;28;20902;-39
2023/01/28 00:36:16;;;;;;;23.50;13.53;;;;;;;-1.26;69.61;97957.09;6247345;28;20274;-39
2023/01/28 00:39:18;;;;;;;21.47;12.10;;;;;;;-1.07;69.60;97990.78;6250930;28;20285;-39
2023/01/28 00:42:20;;;;;;;24.87;13.53;;;;;;;-1.26;69.35;97978.81;6250411;28;20344;-39
2023/01/28 00:45:22;;;;;;;23.27;13.40;;;;;;;-1.19;69.45;97979.00;6252292;28;20223;-39
2023/01/28 00:48:24;;;;;;;21.40;13.40;;;;;;;-1.22;69.74;97976.72;6253154;28;20252;-39
2023/01/28 00:51:26;;;;;;;25.43;13.43;;;;;;;-1.15;69.46;97980.31;6252345;28;20219;-38
2023/01/28 00:54:28;;;;;;;23.23;13.63;;;;;;;-1.17;69.27;97975.25;6243064;28;20226;-39
2023/01/28 00:57:33;;;;;;;24.67;14.20;;;;;;;-1.15;69.44;97977.69;6251745;28;20238;-39
2023/01/28 01:00:36;;;;;;;23.23;13.17;;;;;;;-1.17;69.56;97977.88;6252325;28;20227;-39
2023/01/28 01:03:39;;;;;;;23.90;13.77;;;;;;;-1.08;69.06;97968.25;6257321;28;20231;-39
2023/01/28 01:06:41;;;;;;;24.33;13.97;;;;;;;-1.12;69.25;97975.59;6256369;28;20238;-38
2023/01/28 01:09:44;;;;;;;22.73;12.67;;;;;;;-1.18;69.36;97978.84;6253349;28;20230;-39
2023/01/28 01:12:48;;;;;;;22.83;12.57;;;;;;;-1.34;69.48;97966.53;6256647;28;20238;-38
2023/01/28 01:16:04;;;;;;;23.47;12.80;;;;;;;-1.18;69.49;97980.63;6254076;28;20345;-38
2023/01/28 01:19:07;;;;;;;24.17;13.47;;;;;;;-1.06;69.22;97979.34;6256606;28;20227;-38
2023/01/28 01:22:10;;;;;;;21.47;12.10;;;;;;;-0.97;68.98;97985.41;6256362;28;20560;-38
2023/01/28 01:25:14;;;;;;;23.10;13.13;;;;;;;-0.94;68.68;97985.06;6255420;28;20313;-38
2023/01/28 01:28:20;;;;;;;24.00;14.27;;;;;;;-0.93;68.88;97992.78;6253431;28;20250;-38
2023/01/28 01:31:22;;;;;;;21.67;13.00;;;;;;;-1.11;68.69;97964.16;6254704;28;20671;-38
2023/01/28 01:34:25;;;;;;;22.00;12.77;;;;;;;-0.97;68.73;97990.66;6255751;28;20726;-38
2023/01/28 01:37:28;;;;;;;21.63;13.83;;;;;;;-0.92;68.50;97993.59;6254376;28;20277;-38
2023/01/28 01:40:30;;;;;;;26.93;14.43;;;;;;;-0.93;68.66;97994.59;6254024;28;20237;-38
2023/01/28 01:44:04;;;;;;;24.20;13.17;;;;;;;-0.94;68.98;98001.59;6250053;28;20227;-38
2023/01/28 01:47:08;;;;;;;23.30;13.73;;;;;;;-0.89;69.44;97993.25;6248628;28;20238;-38
2023/01/28 01:50:28;;;;;;;26.67;15.27;;;;;;;-0.99;69.12;97998.63;6255588;28;20341;-38
2023/01/28 01:53:34;;;;;;;25.20;13.03;;;;;;;-0.92;68.59;97996.22;6255693;28;20243;-39
2023/01/28 01:56:41;;;;;;;23.10;14.10;;;;;;;-0.92;68.29;98010.09;6256338;28;20247;-39
2023/01/28 01:59:46;;;;;;;23.70;14.03;;;;;;;-0.92;68.70;98010.09;6250525;28;20235;-38
2023/01/28 02:02:50;;;;;;;22.23;11.73;;;;;;;-1.07;68.61;97972.50;6248969;28;20238;-39
2023/01/28 02:05:53;;;;;;;20.80;13.27;;;;;;;-0.90;68.45;98002.09;6256026;28;20297;-38
2023/01/28 02:08:55;;;;;;;23.83;13.97;;;;;;;-1.18;68.77;97965.78;6254948;28;20238;-38
2023/01/28 02:12:07;;;;;;;23.67;13.40;;;;;;;-0.96;68.75;97994.91;6237784;28;20227;-39
2023/01/28 02:15:19;;;;;;;25.87;13.43;;;;;;;-1.06;68.89;97976.75;6236045;28;20238;-39
2023/01/28 02:18:21;;;;;;;24.43;13.90;;;;;;;-0.97;68.92;97988.03;6253887;28;20234;-38
2023/01/28 02:21:50;;;;;;;24.87;14.43;;;;;;;-0.93;68.78;97987.56;6252900;28;20231;-38
2023/01/28 02:24:58;;;;;;;23.50;14.50;;;;;;;-0.88;68.80;97990.50;6259673;28;20713;-38
2023/01/28 02:28:23;;;;;;;25.47;14.27;;;;;;;-0.88;68.85;98000.97;6250677;28;20607;-38
2023/01/28 02:31:51;;;;;;;24.83;14.40;;;;;;;-0.81;68.62;97996.72;6252073;28;20312;-38
2023/01/28 02:35:04;;;;;;;20.93;12.70;;;;;;;-0.81;68.70;98003.75;6248478;28;20231;-38
2023/01/28 02:38:35;;;;;;;24.77;13.33;;;;;;;-0.86;68.18;98004.22;6247377;28;20308;-38
2023/01/28 02:41:49;;;;;;;25.03;14.33;;;;;;;-0.87;68.36;97994.75;6254199;28;20314;-38
2023/01/28 02:44:54;;;;;;;24.40;14.13;;;;;;;-0.87;68.39;97997.38;6250949;28;20233;-38
2023/01/28 02:47:56;;;;;;;20.47;12.67;;;;;;;-1.04;68.65;97969.53;6254307;28;20226;-38
2023/01/28 02:51:09;;;;;;;23.10;12.87;;;;;;;-0.82;69.09;97989.03;6236521;28;20239;-38
2023/01/28 02:54:24;;;;;;;24.70;13.70;;;;;;;-0.88;69.42;97987.88;6247847;28;20240;-38
2023/01/28 02:57:32;;;;;;;23.77;15.03;;;;;;;-1.07;69.09;97990.78;6252189;28;20238;-38
2023/01/28 03:01:08;;;;;;;22.80;13.43;;;;;;;-1.12;69.44;98006.16;6250103;28;20231;-38
2023/01/28 03:04:19;;;;;;;26.20;14.40;;;;;;;-1.17;69.55;97996.16;6252602;28;20223;-38
2023/01/28 03:07:28;;;;;;;23.93;14.60;;;;;;;-1.17;69.60;97992.72;6253049;28;20231;-39
2023/01/28 03:10:32;;;;;;;22.67;13.50;;;;;;;-1.10;69.30;97991.91;6250039;28;20239;-38
2023/01/28 03:37:47;;;;;;;23.47;14.00;;;;;;;-1.41;71.03;98003.94;6249704;28;20231;-39
2023/01/28 03:41:02;;;;;;;26.07;14.43;;;;;;;-1.42;70.93;98003.09;6248106;28;20262;-38
2023/01/28 03:47:27;;;;;;;26.00;15.17;;;;;;;-1.41;71.36;98002.13;6250744;28;20219;-38
2023/01/28 03:50:30;;;;;;;25.83;15.23;;;;;;;-1.54;71.78;97999.13;6249549;28;20261;-38
2023/01/28 03:53:36;;;;;;;26.57;14.67;;;;;;;-1.45;71.72;98002.59;6243977;28;20227;-38
2023/01/28 03:56:39;;;;;;;23.83;14.00;;;;;;;-1.40;71.56;98006.38;6252745;28;20238;-38
2023/01/28 03:59:41;;;;;;;29.37;15.57;;;;;;;-1.51;72.04;98009.28;6247865;28;20246;-38
2023/01/28 04:02:46;;;;;;;27.37;15.97;;;;;;;-1.51;71.63;98005.84;6250476;28;20630;-38
2023/01/28 04:06:00;;;;;;;27.33;14.20;;;;;;;-1.45;72.06;98006.03;6252344;28;20249;-38
2023/01/28 04:09:18;;;;;;;25.50;14.07;;;;;;;-1.54;71.72;97974.81;6247780;28;20796;-39
2023/01/28 04:12:29;;;;;;;26.77;15.27;;;;;;;-1.50;71.90;97997.84;6251082;28;20233;-38
2023/01/28 04:15:31;;;;;;;28.70;14.83;;;;;;;-1.53;71.97;98002.56;6246964;28;20705;-39
2023/01/28 04:18:34;;;;;;;27.40;16.27;;;;;;;-1.56;72.56;98007.13;6249575;28;20229;-38
2023/01/28 04:21:38;;;;;;;25.10;14.67;;;;;;;-1.78;72.28;97980.75;6251825;28;20320;-39
2023/01/28 04:24:42;;;;;;;24.37;15.20;;;;;;;-1.52;72.36;98010.25;6250863;28;20238;-38
2023/01/28 04:27:47;;;;;;;24.63;14.47;;;;;;;-1.54;72.13;98008.75;6249941;28;20222;-38
2023/01/28 04:30:53;;;;;;;26.03;14.77;;;;;;;-1.51;72.16;98014.50;6250112;28;20258;-38
2023/01/28 04:34:26;;;;;;;22.83;13.73;;;;;;;-1.55;72.34;98013.19;6251843;28;20281;-39
2023/01/28 04:37:42;;;;;;;24.40;14.43;;;;;;;-1.53;72.13;98008.59;6258159;28;20729;-38
2023/01/28 04:41:07;;;;;;;27.27;16.27;;;;;;;-1.55;72.11;98013.19;6252799;28;20725;-39
2023/01/28 04:44:10;;;;;;;23.00;14.10;;;;;;;-1.49;72.56;98020.38;6255348;28;20234;-38
2023/01/28 04:47:29;;;;;;;29.60;15.33;;;;;;;-1.46;72.98;98016.66;6253547;28;20561;-38
2023/01/28 04:51:00;;;;;;;25.50;14.53;;;;;;;-1.44;72.28;98023.34;6248323;28;20223;-39
2023/01/28 04:54:14;;;;;;;25.77;14.77;;;;;;;-1.44;72.71;98025.13;6251233;28;20272;-38
2023/01/28 04:57:17;;;;;;;24.40;14.23;;;;;;;-1.42;72.94;98031.03;6252253;28;20227;-38
2023/01/28 05:00:20;;;;;;;28.20;15.97;;;;;;;-1.45;71.70;98037.38;6248081;28;20296;-38
2023/01/28 05:03:26;;;;;;;26.93;15.13;;;;;;;-1.42;71.82;98031.84;6268322;28;20243;-39
2023/01/28 05:06:29;;;;;;;26.30;13.90;;;;;;;-1.53;72.27;98032.09;6256832;28;20230;-38
2023/01/28 05:09:35;;;;;;;23.37;14.03;;;;;;;-1.48;72.41;98032.47;6255750;28;20253;-38
2023/01/28 05:12:43;;;;;;;24.30;13.73;;;;;;;-1.43;71.99;98032.00;6255292;28;20616;-39
2023/01/28 05:15:50;;;;;;;26.87;14.73;;;;;;;-1.46;72.28;98033.13;6266676;28;20235;-38
2023/01/28 05:18:53;;;;;;;25.37;14.47;;;;;;;-1.46;72.12;98032.31;6255124;28;20250;-39
2023/01/28 05:21:56;;;;;;;25.00;14.67;;;;;;;-1.43;72.58;98032.00;6255582;28;20242;-39
2023/01/28 05:25:19;;;;;;;24.83;14.07;;;;;;;-1.38;72.88;98042.78;6252488;28;20227;-39
2023/01/28 05:28:21;;;;;;;24.87;14.53;;;;;;;-1.49;72.92;98033.44;6244868;28;20775;-38
2023/01/28 05:31:24;;;;;;;26.67;14.90;;;;;;;-1.51;72.81;98038.00;6254798;28;20249;-39
2023/01/28 05:34:28;;;;;;;25.80;15.20;;;;;;;-1.57;73.52;98041.25;6255578;28;20237;-38
2023/01/28 05:37:38;;;;;;;21.60;12.67;;;;;;;-1.41;73.24;98045.72;6253921;28;20218;-38
2023/01/28 05:40:41;;;;;;;24.53;13.27;;;;;;;-1.34;73.17;98033.66;6255080;28;20231;-38
2023/01/28 05:43:43;;;;;;;25.40;14.60;;;;;;;-1.29;73.32;98049.69;6245509;28;20259;-40
2023/01/28 05:46:54;;;;;;;27.20;15.13;;;;;;;-1.33;72.62;98049.22;6242994;28;20240;-39
2023/01/28 05:50:15;;;;;;;25.20;14.23;;;;;;;-1.51;72.65;98014.50;6253780;28;20231;-38
2023/01/28 05:53:38;;;;;;;23.00;13.67;;;;;;;-1.39;73.30;98043.78;6254537;28;20231;-38
2023/01/28 05:56:41;;;;;;;24.63;14.37;;;;;;;-1.40;72.81;98044.75;6254109;28;20518;-39
2023/01/28 05:59:43;;;;;;;25.30;14.80;;;;;;;-1.37;73.21;98057.50;6254895;28;20230;-38
2023/01/28 06:02:46;;;;;;;28.37;15.83;;;;;;;-1.41;73.48;98051.78;6253830;28;20233;-38
2023/01/28 06:05:49;;;;;;;25.93;14.73;;;;;;;-1.35;73.56;98052.94;6256080;28;20253;-39
2023/01/28 06:08:52;;;;;;;27.40;14.60;;;;;;;-1.50;74.05;98052.72;6256070;28;20231;-38
2023/01/28 06:12:00;;;;;;;22.83;13.93;;;;;;;-1.46;74.51;98059.25;6253911;28;20227;-38
2023/01/28 06:15:05;;;;;;;23.20;14.67;;;;;;;-1.48;73.97;98066.41;6250473;28;20231;-38
2023/01/28 06:18:26;;;;;;;25.37;14.40;;;;;;;-1.64;74.02;98035.81;6255487;28;20231;-39
2023/01/28 06:21:28;;;;;;;22.67;13.33;;;;;;;-1.42;74.17;98062.38;6250264;28;20273;-39
2023/01/28 06:24:32;;;;;;;23.33;13.90;;;;;;;-1.48;74.05;98057.78;6266927;28;20296;-39
2023/01/28 06:27:34;;;;;;;25.37;14.00;;;;;;;-1.42;74.20;98065.00;6253664;28;20227;-39
2023/01/28 06:30:36;;;;;;;21.97;12.60;;;;;;;-1.37;74.05;98071.41;6255725;28;20234;-39
2023/01/28 06:33:39;;;;;;;26.70;14.30;;;;;;;-1.32;73.61;98074.34;6252113;28;20293;-39
2023/01/28 06:36:41;;;;;;;23.73;13.93;;;;;;;-1.27;73.47;98076.50;6249515;28;20224;-38
2023/01/28 06:39:43;;;;;;;22.67;13.30;;;;;;;-1.38;73.06;98077.59;6255982;28;20240;-38
2023/01/28 06:42:45;;;;;;;25.67;13.60;;;;;;;-1.30;72.95;98080.22;6256119;28;20227;-38
2023/01/28 06:45:48;;;;;;;24.43;13.47;;;;;;;-1.23;72.51;98090.06;6258761;28;20357;-38
2023/01/28 06:48:50;;;;;;;25.03;13.33;;;;;;;-1.27;72.83;98086.13;6254244;28;20760;-39
2023/01/28 06:51:53;;;;;;;26.43;13.53;;;;;;;-1.26;73.26;98096.44;6254484;28;20227;-38
2023/01/28 06:54:55;;;;;;;21.53;13.17;;;;;;;-1.24;73.06;98097.06;6251824;28;20241;-38
2023/01/28 06:57:57;;;;;;;26.60;14.07;;;;;;;-1.34;72.89;98112.06;6250353;28;20230;-38
2023/01/28 07:01:03;;;;;;;27.37;13.93;;;;;;;-1.34;73.05;98118.09;6253512;28;20249;-39
2023/01/28 07:04:07;;;;;;;18.90;12.60;;;;;;;-1.27;73.11;98099.22;6253470;28;20231;-38
2023/01/28 07:07:10;;;;;;;24.93;13.53;;;;;;;-1.18;73.26;98113.94;6253631;28;20241;-38
2023/01/28 07:10:12;;;;;;;23.60;13.27;;;;;;;-1.38;73.25;98074.16;6253897;28;20223;-39
2023/01/28 07:13:14;;;;;;;22.73;13.70;;;;;;;-1.04;72.94;98115.94;6250273;28;20318;-39
2023/01/28 07:16:17;;;;;;;26.77;15.33;;;;;;;-1.07;72.61;98113.66;6255573;28;20234;-39
2023/01/28 07:19:22;;;;;;;23.27;13.90;;;;;;;-1.07;73.03;98111.06;6253274;28;20246;-38
2023/01/28 07:22:24;;;;;;;21.40;12.70;;;;;;;-1.02;72.72;98108.78;6253610;28;20239;-38
2023/01/28 07:25:26;;;;;;;26.07;13.30;;;;;;;-1.01;73.06;98112.22;6247754;28;20239;-38
2023/01/28 07:28:28;;;;;;;24.50;14.37;;;;;;;-1.13;73.46;98111.69;6249643;28;20326;-38
2023/01/28 07:31:30;;;;;;;23.00;13.80;;;;;;;-1.10;73.49;98101.72;6249920;28;20223;-38
2023/01/28 07:34:33;;;;;;;26.37;14.70;;;;;;;-1.13;73.69;98103.84;6253513;28;20733;-39
2023/01/28 07:37:36;;;;;;;29.90;14.60;;;;;;;-1.12;74.02;98113.31;6248415;28;20277;-39
2023/01/28 07:40:38;;;;;;;25.67;14.83;;;;;;;-1.19;74.15;98107.88;6253335;28;20239;-39
2023/01/28 07:43:40;;;;;;;23.23;13.90;;;;;;;-1.20;73.96;98110.66;6249084;28;20614;-39
2023/01/28 07:46:43;;;;;;;22.87;13.47;;;;;;;-1.16;74.31;98120.66;6249865;28;20714;-38
2023/01/28 07:49:46;;;;;;;27.13;15.00;;;;;;;-1.19;74.31;98128.78;6253835;28;20709;-38
2023/01/28 07:52:48;;;;;;;24.63;14.57;;;;;;;-1.09;74.05;98128.69;6252959;28;20227;-38
2023/01/28 07:55:51;;;;;;;24.27;14.13;;;;;;;-1.07;74.21;98121.50;6253792;28;21077;-39
2023/01/28 07:58:53;;;;;;;22.10;13.70;;;;;;;-1.15;74.54;98140.59;6249721;28;20580;-39
2023/01/28 08:01:55;;;;;;;22.00;13.10;;;;;;;-1.08;74.14;98127.72;6251554;28;20242;-39
2023/01/28 08:05:00;;;;;;;26.80;13.43;;;;;;;-0.96;73.87;98133.47;6251388;28;20699;-39
2023/01/28 08:08:06;;;;;;;22.63;12.73;;;;;;;-0.91;73.78;98142.50;6253114;28;20238;-39
2023/01/28 08:11:10;;;;;;;21.37;11.73;;;;;;;-0.73;73.51;98139.78;6252320;28;20226;-38
2023/01/28 08:14:13;;;;;;;23.43;13.73;;;;;;;-0.74;73.00;98139.91;6252663;28;20229;-38
2023/01/28 08:17:18;;;;;;;22.10;12.47;;;;;;;-0.64;73.30;98151.91;6252511;28;20710;-39
2023/01/28 08:20:23;;;;;;;23.30;12.10;;;;;;;-0.62;73.01;98152.56;6248465;28;20242;-38
2023/01/28 08:23:27;;;;;;;19.80;11.97;;;;;;;-0.45;72.44;98147.38;6251004;28;20322;-39
2023/01/28 08:26:30;;;;;;;22.10;12.37;;;;;;;-0.40;72.14;98150.31;6252751;28;20597;-39
2023/01/28 08:29:32;;;;;;;22.43;12.67;;;;;;;-0.34;71.86;98157.56;6252572;28;20321;-38
2023/01/28 08:32:35;;;;;;;22.27;12.23;;;;;;;-0.38;71.63;98158.84;6252827;28;20313;-39
2023/01/28 08:35:38;;;;;;;19.73;12.07;;;;;;;-0.36;71.70;98155.06;6233030;28;20321;-38
2023/01/28 08:38:41;;;;;;;21.50;12.50;;;;;;;-0.20;71.76;98167.38;6249231;28;20231;-39
2023/01/28 08:41:43;;;;;;;16.70;10.50;;;;;;;-0.10;71.49;98165.44;6251927;28;20252;-38
2023/01/28 08:44:46;;;;;;;20.17;12.37;;;;;;;-0.13;71.43;98149.22;6251547;28;20587;-39
2023/01/28 08:47:56;;;;;;;18.67;11.90;;;;;;;0.01;70.89;98180.00;6252117;28;20234;-39
2023/01/28 08:50:59;;;;;;;18.80;10.83;;;;;;;-0.02;71.01;98177.72;6252171;28;20255;-38
2023/01/28 08:54:01;;;;;;;17.10;11.57;;;;;;;0.00;70.86;98178.38;6251899;28;20233;-38
2023/01/28 08:57:04;;;;;;;18.83;11.10;;;;;;;-0.03;70.42;98171.66;6248783;28;20227;-39
2023/01/28 09:00:09;;;;;;;19.33;10.53;;;;;;;-0.03;70.09;98178.69;6250203;28;20280;-39
2023/01/28 09:03:12;;;;;;;19.00;11.80;;;;;;;-0.03;69.78;98179.50;6251773;28;20732;-39
2023/01/28 09:06:14;;;;;;;18.30;11.50;;;;;;;-0.12;70.02;98177.84;6255470;28;20227;-38
2023/01/28 09:09:19;;;;;;;17.23;10.57;;;;;;;-0.01;70.12;98181.97;6251925;28;20571;-38
2023/01/28 09:12:22;;;;;;;16.97;10.77;;;;;;;0.03;70.09;98177.22;6249230;28;20757;-39
2023/01/28 09:15:25;;;;;;;19.40;11.60;;;;;;;0.04;70.03;98179.66;6251861;28;20227;-38
2023/01/28 09:18:28;;;;;;;19.17;11.77;;;;;;;-0.05;69.78;98186.72;6251510;28;20740;-38
2023/01/28 09:21:31;;;;;;;18.83;10.40;;;;;;;0.03;69.95;98183.28;6252890;28;20239;-38
2023/01/28 09:24:33;;;;;;;18.73;10.60;;;;;;;0.13;70.06;98181.31;6255831;28;20250;-39
2023/01/28 09:27:35;;;;;;;16.13;10.37;;;;;;;0.19;70.25;98191.13;6257670;28;20325;-38
2023/01/28 09:30:38;;;;;;;18.57;10.87;;;;;;;0.28;69.81;98193.78;6252919;28;20241;-39
2023/01/28 09:33:40;;;;;;;17.13;10.63;;;;;;;0.24;69.53;98188.03;6256137;28;20608;-38
2023/01/28 09:36:42;;;;;;;18.93;11.10;;;;;;;0.20;69.78;98190.19;6255670;28;20266;-39
2023/01/28 09:39:45;;;;;;;16.27;10.70;;;;;;;0.10;69.97;98202.63;6256603;28;20258;-38
2023/01/28 09:43:24;;;;;;;16.43;10.20;;;;;;;0.19;70.26;98200.81;6255048;28;20723;-38
2023/01/28 09:46:33;;;;;;;18.10;10.40;;;;;;;0.21;69.97;98204.09;6250681;28;20232;-38
2023/01/28 09:49:47;;;;;;;17.50;10.70;;;;;;;0.22;70.14;98203.91;6256715;28;20234;-39
2023/01/28 09:53:01;;;;;;;17.63;10.93;;;;;;;0.25;69.96;98205.41;6255784;28;20314;-39
2023/01/28 09:56:11;;;;;;;18.53;10.97;;;;;;;0.24;70.22;98201.94;6255990;28;21075;-38
2023/01/28 09:59:18;;;;;;;17.90;10.97;;;;;;;0.21;70.05;98202.28;6250174;28;20241;-38
2023/01/28 10:03:07;;;;;;;18.20;11.33;;;;;;;0.28;70.05;98201.63;6250628;28;20558;-38
2023/01/28 10:06:27;;;;;;;14.90;10.27;;;;;;;0.39;70.40;98198.66;6256972;28;20248;-37
2023/01/28 10:09:40;;;;;;;18.70;10.97;;;;;;;0.45;70.11;98193.63;6253402;28;20240;-38
2023/01/28 10:13:01;;;;;;;15.63;9.47;;;;;;;0.49;70.01;98197.53;6247374;28;20604;-39
2023/01/28 10:16:23;;;;;;;15.93;9.67;;;;;;;0.59;70.12;98199.16;6256065;28;20379;-38
2023/01/28 10:19:40;;;;;;;17.20;9.97;;;;;;;0.56;70.14;98191.63;6254086;28;20262;-38
2023/01/28 10:23:03;;;;;;;17.70;11.27;;;;;;;0.48;69.94;98184.59;6245960;28;20234;-39
2023/01/28 10:26:34;;;;;;;15.30;9.57;;;;;;;0.65;70.05;98195.88;6247904;28;20231;-38
2023/01/28 10:29:38;;;;;;;17.10;10.87;;;;;;;0.67;69.65;98189.47;6254431;28;20220;-39
2023/01/28 10:33:05;;;;;;;17.10;9.53;;;;;;;0.84;69.81;98189.44;6250931;28;20234;-38
2023/01/28 10:36:08;;;;;;;15.67;9.87;;;;;;;0.89;69.65;98187.16;6246506;28;20227;-38
2023/01/28 10:39:17;;;;;;;14.70;10.30;;;;;;;0.96;69.67;98190.75;6245976;28;20769;-39
2023/01/28 10:42:27;;;;;;;14.70;10.47;;;;;;;0.99;70.00;98191.22;6250259;28;20223;-38
2023/01/28 10:45:39;;;;;;;18.77;10.43;;;;;;;0.85;71.24;98152.56;6254390;28;20825;-37
2023/01/28 10:49:02;;;;;;;16.33;9.83;;;;;;;1.19;71.85;98194.28;6256396;28;20227;-38
2023/01/28 10:52:13;;;;;;;15.50;9.40;;;;;;;1.14;71.82;98178.22;6254393;28;21034;-39
2023/01/28 10:55:15;;;;;;;15.17;9.13;;;;;;;1.35;71.38;98189.97;6239393;28;20217;-38
2023/01/28 10:58:29;;;;;;;15.03;9.53;;;;;;;1.36;70.51;98187.16;6254452;28;20220;-39
2023/01/28 11:01:46;;;;;;;13.80;9.17;;;;;;;1.18;70.26;98187.41;6253779;28;20233;-39
2023/01/28 11:05:00;;;;;;;13.13;8.43;;;;;;;1.11;69.86;98186.44;6256787;28;20239;-39
2023/01/28 11:08:14;;;;;;;13.07;7.83;;;;;;;1.02;70.08;98190.06;6261125;28;20232;-39
2023/01/28 11:11:27;;;;;;;12.73;8.60;;;;;;;1.08;69.39;98191.19;6253272;28;20664;-39
2023/01/28 11:14:29;;;;;;;13.23;9.07;;;;;;;1.03;69.32;98175.94;6250070;28;20254;-39
2023/01/28 11:17:35;;;;;;;15.20;9.70;;;;;;;0.93;69.70;98175.31;6253617;28;20712;-38
2023/01/28 11:20:42;;;;;;;14.60;9.23;;;;;;;1.03;70.06;98187.28;6248347;28;20265;-38
2023/01/28 11:23:55;;;;;;;14.50;11.57;;;;;;;1.58;68.72;98182.13;6248681;28;20439;-38
2023/01/28 11:27:14;;;;;;;13.90;9.90;;;;;;;1.07;69.48;98161.50;6251013;28;20254;-39
2023/01/28 11:30:31;;;;;;;16.27;9.40;;;;;;;1.16;69.44;98181.50;6253482;28;20968;-39
2023/01/28 11:33:42;;;;;;;14.40;9.87;;;;;;;1.27;69.43;98177.66;6252002;28;20224;-38
2023/01/28 11:36:53;;;;;;;13.20;8.90;;;;;;;1.33;68.82;98184.88;6250263;28;20720;-39
2023/01/28 11:40:19;;;;;;;13.80;8.73;;;;;;;1.27;68.69;98188.16;6250810;28;20232;-38
2023/01/28 11:43:28;;;;;;;12.27;7.77;;;;;;;1.31;68.93;98186.03;6251151;28;20226;-38
2023/01/28 11:46:33;;;;;;;11.50;7.93;;;;;;;1.33;68.86;98184.03;6252684;28;20323;-39
2023/01/28 11:50:15;;;;;;;12.63;8.17;;;;;;;1.28;68.64;98185.41;6252270;28;20247;-39
2023/01/28 11:53:41;;;;;;;13.47;8.47;;;;;;;1.21;69.17;98189.66;6252600;28;20227;-38
2023/01/28 11:57:08;;;;;;;12.33;8.47;;;;;;;1.21;68.46;98173.94;6253212;28;20236;-38
2023/01/28 12:00:10;;;;;;;12.40;8.07;;;;;;;1.23;69.09;98186.88;6249359;28;20240;-38
2023/01/28 12:03:16;;;;;;;12.77;7.93;;;;;;;1.21;69.54;98170.50;6251196;28;20688;-38
2023/01/28 12:06:30;;;;;;;12.53;8.37;;;;;;;1.14;69.50;98185.28;6245626;28;20249;-38
2023/01/28 12:09:43;;;;;;;14.47;9.20;;;;;;;1.13;69.83;98189.69;6253479;28;20284;-38
2023/01/28 12:13:09;;;;;;;13.73;8.67;;;;;;;1.05;69.52;98191.53;6247978;28;20245;-38
2023/01/28 12:16:12;;;;;;;13.83;9.13;;;;;;;1.00;70.31;98192.03;6247706;28;20334;-39
2023/01/28 12:19:51;;;;;;;16.63;9.93;;;;;;;0.90;70.43;98186.16;6253059;28;20230;-38
2023/01/28 12:23:20;;;;;;;16.10;9.23;;;;;;;0.98;70.81;98189.56;6245558;28;20235;-38
2023/01/28 12:27:08;;;;;;;12.87;9.33;;;;;;;0.91;70.29;98188.63;6248651;28;20701;-38
2023/01/28 12:30:36;;;;;;;16.23;9.30;;;;;;;0.94;71.20;98187.47;6252145;28;20695;-38
2023/01/28 12:34:09;;;;;;;14.97;9.07;;;;;;;0.93;70.35;98191.06;6250026;28;20223;-37
2023/01/28 12:37:33;;;;;;;15.47;8.90;;;;;;;1.01;70.48;98189.25;6250070;28;20236;-38
2023/01/28 12:40:59;;;;;;;13.27;8.47;;;;;;;1.09;69.97;98187.59;6247942;28;20339;-39
2023/01/28 12:44:12;;;;;;;16.47;8.83;;;;;;;1.01;69.56;98199.75;6249997;28;20241;-38
2023/01/28 12:47:38;;;;;;;17.10;9.57;;;;;;;0.86;68.81;98201.41;6249247;28;20368;-38
2023/01/28 12:50:48;;;;;;;16.73;9.70;;;;;;;0.82;69.32;98207.16;6251646;28;20236;-38
2023/01/28 12:53:57;;;;;;;15.03;9.57;;;;;;;0.87;69.79;98200.41;6251234;28;20282;-38
2023/01/28 12:57:03;;;;;;;18.07;10.60;;;;;;;0.87;69.45;98205.66;6252493;28;20320;-38
2023/01/28 13:00:38;;;;;;;17.30;9.97;;;;;;;0.83;69.22;98206.16;6257344;28;20273;-38
2023/01/28 13:04:00;;;;;;;16.17;9.97;;;;;;;0.78;69.04;98183.06;6253850;28;20242;-38
2023/01/28 13:07:14;;;;;;;18.83;10.73;;;;;;;0.95;69.09;98202.22;6255335;28;20318;-39
2023/01/28 13:10:24;;;;;;;18.63;10.97;;;;;;;0.84;68.64;98210.41;6259722;28;20760;-38
2023/01/28 13:13:41;;;;;;;18.30;10.53;;;;;;;0.91;69.12;98203.53;6255690;28;20322;-38
2023/01/28 13:16:46;;;;;;;17.60;10.63;;;;;;;0.88;68.96;98211.72;6255352;28;20323;-38
2023/01/28 13:19:49;;;;;;;20.60;12.33;;;;;;;0.81;69.08;98216.84;6256734;28;20245;-38
2023/01/28 13:23:00;;;;;;;20.67;12.83;;;;;;;0.81;69.19;98219.47;6256161;28;20273;-38
2023/01/28 13:26:43;;;;;;;19.30;10.60;;;;;;;0.90;69.52;98223.72;6257500;28;20259;-39
2023/01/28 13:29:48;;;;;;;22.57;11.10;;;;;;;0.96;69.37;98225.66;6256093;28;20231;-38
2023/01/28 13:32:57;;;;;;;22.20;11.93;;;;;;;0.93;68.77;98222.53;6252995;28;20235;-39
2023/01/28 13:36:27;;;;;;;16.87;9.93;;;;;;;0.92;68.96;98223.53;6255068;28;20590;-38
2023/01/28 13:39:32;;;;;;;23.23;11.70;;;;;;;0.87;68.67;98225.84;6253742;28;20238;-38
2023/01/28 13:42:35;;;;;;;19.43;12.27;;;;;;;0.89;68.27;98229.94;6256409;28;20317;-38
2023/01/28 13:45:37;;;;;;;22.43;12.40;;;;;;;0.70;68.48;98231.09;6255930;28;20236;-39
2023/01/28 13:48:50;;;;;;;19.27;11.53;;;;;;;0.68;68.82;98233.06;6252881;28;20694;-38
2023/01/28 13:52:11;;;;;;;22.23;11.70;;;;;;;0.67;69.04;98235.84;6251463;28;20223;-38
2023/01/28 13:55:20;;;;;;;22.33;12.60;;;;;;;0.61;69.11;98244.38;6252776;28;20243;-38
2023/01/28 13:59:01;;;;;;;23.27;11.73;;;;;;;0.71;69.17;98251.09;6252822;28;20236;-38
2023/01/28 14:02:19;;;;;;;18.83;10.67;;;;;;;0.69;69.16;98253.06;6253470;28;20256;-38
2023/01/28 14:05:47;;;;;;;21.73;11.20;;;;;;;0.75;69.53;98255.03;6253698;28;20232;-39
2023/01/28 14:09:25;;;;;;;18.70;10.10;;;;;;;0.77;69.71;98255.69;6257338;28;20232;-38
2023/01/28 14:12:59;;;;;;;18.43;10.83;;;;;;;0.70;70.19;98259.94;6250272;28;20679;-38
2023/01/28 14:16:22;;;;;;;19.97;11.00;;;;;;;0.68;70.18;98256.66;6252685;28;20236;-38
2023/01/28 14:19:30;;;;;;;20.37;12.10;;;;;;;0.49;70.46;98249.97;6252450;28;20241;-38
2023/01/28 14:22:32;;;;;;;21.13;12.43;;;;;;;0.48;69.87;98261.41;6251524;28;20704;-38
2023/01/28 14:25:57;;;;;;;16.97;11.20;;;;;;;0.52;71.17;98269.78;6253695;28;20230;-39
2023/01/28 14:29:36;;;;;;;19.20;11.30;;;;;;;0.56;70.96;98268.47;6252776;28;20602;-38
2023/01/28 14:32:46;;;;;;;22.63;11.93;;;;;;;0.59;70.82;98265.53;6252636;28;20243;-38
2023/01/28 14:35:49;;;;;;;24.57;12.70;;;;;;;0.51;70.50;98262.91;6251904;28;20228;-38
2023/01/28 14:38:54;;;;;;;20.23;12.07;;;;;;;0.42;70.57;98254.22;6254760;28;20233;-38
2023/01/28 14:42:01;;;;;;;18.97;10.73;;;;;;;0.52;70.74;98252.25;6254739;28;20304;-38
2023/01/28 14:45:10;;;;;;;17.87;10.93;;;;;;;0.61;70.68;98260.13;6251190;28;20255;-38
2023/01/28 14:48:37;;;;;;;18.73;10.50;;;;;;;0.50;70.02;98256.03;6255238;28;20693;-38
2023/01/28 14:52:02;;;;;;;17.37;10.90;;;;;;;0.54;70.71;98261.75;6253429;28;20232;-38
2023/01/28 14:55:28;;;;;;;15.10;9.67;;;;;;;0.67;70.78;98262.88;6252268;28;20238;-38
2023/01/28 14:58:45;;;;;;;18.60;10.90;;;;;;;0.72;70.62;98271.09;6250259;28;20231;-38
2023/01/28 15:01:48;;;;;;;18.20;10.00;;;;;;;0.75;71.18;98283.88;6242979;28;20232;-38
2023/01/28 15:04:51;;;;;;;18.73;10.73;;;;;;;0.76;70.54;98277.66;6241121;28;20634;-38
2023/01/28 15:07:56;;;;;;;22.83;11.63;;;;;;;0.80;70.75;98279.94;6245133;28;20227;-38